createdAt,value
2018-06-05T00:01:24.403Z,101111.91
2018-06-05T00:03:52.768Z,101108.11
2018-06-05T00:06:21.114Z,101101.92
2018-06-05T00:08:49.482Z,101103.66
2018-06-05T00:11:17.960Z,101104.22
2018-06-05T00:13:46.346Z,101094.73
2018-06-05T00:16:14.814Z,101097.98
2018-06-05T00:18:43.169Z,101091.87
2018-06-05T00:21:11.506Z,101092.67
2018-06-05T00:23:39.686Z,101091.80
2018-06-05T00:26:10.060Z,101096.06
2018-06-05T00:28:38.665Z,101091.78
2018-06-05T00:31:06.963Z,101089.95
2018-06-05T00:33:35.438Z,101088.56
2018-06-05T00:36:03.825Z,101090.80
2018-06-05T00:38:32.202Z,101093.77
2018-06-05T00:41:00.654Z,101093.50
2018-06-05T00:43:29.047Z,101091.61
2018-06-05T00:45:57.373Z,101086.39
2018-06-05T00:48:25.729Z,101098.34
2018-06-05T00:50:54.086Z,101093.17
2018-06-05T00:53:22.499Z,101095.77
2018-06-05T00:55:50.902Z,101091.11
2018-06-05T00:58:19.212Z,101093.95
2018-06-05T01:00:47.720Z,101092.78
2018-06-05T01:03:15.997Z,101095.30
2018-06-05T01:05:44.414Z,101093.00
2018-06-05T01:08:12.810Z,101100.98
2018-06-05T01:10:41.331Z,101099.46
2018-06-05T01:13:09.674Z,101101.83
2018-06-05T01:15:38.080Z,101103.32
2018-06-05T01:18:06.406Z,101109.11
2018-06-05T01:20:34.814Z,101099.78
2018-06-05T01:23:03.266Z,101102.91
2018-06-05T01:25:31.590Z,101100.28
2018-06-05T01:27:59.922Z,101103.78
2018-06-05T01:30:28.278Z,101103.55
2018-06-05T01:32:56.669Z,101107.17
2018-06-05T01:35:24.914Z,101099.16
2018-06-05T01:37:53.281Z,101100.51
2018-06-05T01:40:21.763Z,101089.55
2018-06-05T01:42:50.081Z,101086.90
2018-06-05T01:45:19.217Z,101093.81
2018-06-05T01:47:47.397Z,101088.86
2018-06-05T01:50:15.815Z,101090.91
2018-06-05T01:52:44.146Z,101089.23
2018-06-05T01:55:12.485Z,101093.12
2018-06-05T01:57:40.748Z,101092.94
2018-06-05T02:00:09.110Z,101095.16
2018-06-05T02:02:37.431Z,101095.63
2018-06-05T02:05:06.026Z,101094.60
2018-06-05T02:07:34.402Z,101101.28
2018-06-05T02:10:02.850Z,101105.88
2018-06-05T02:12:31.275Z,101103.12
2018-06-05T02:14:59.599Z,101100.61
2018-06-05T02:17:28.066Z,101098.11
2018-06-05T02:19:56.474Z,101092.77
2018-06-05T02:22:24.802Z,101092.55
2018-06-05T02:24:53.150Z,101096.00
2018-06-05T02:27:21.482Z,101100.30
2018-06-05T02:29:49.933Z,101102.38
2018-06-05T02:32:18.221Z,101101.36
2018-06-05T02:34:46.390Z,101100.30
2018-06-05T02:37:14.807Z,101107.04
2018-06-05T02:39:43.197Z,101112.22
2018-06-05T02:42:11.545Z,101116.59
2018-06-05T02:44:39.821Z,101115.31
2018-06-05T02:47:08.217Z,101113.97
2018-06-05T02:49:36.750Z,101111.89
2018-06-05T02:52:05.048Z,101111.23
2018-06-05T02:54:33.374Z,101113.52
2018-06-05T02:57:01.718Z,101108.13
2018-06-05T02:59:30.034Z,101113.23
2018-06-05T03:01:58.414Z,101115.13
2018-06-05T03:04:26.824Z,101114.72
2018-06-05T03:06:55.160Z,101115.30
2018-06-05T03:09:23.660Z,101121.59
2018-06-05T03:11:52.004Z,101127.30
2018-06-05T03:14:20.406Z,101118.00
2018-06-05T03:16:49.014Z,101123.94
2018-06-05T03:19:17.358Z,101131.22
2018-06-05T03:21:45.710Z,101125.11
2018-06-05T03:24:13.957Z,101125.23
2018-06-05T03:26:42.291Z,101125.01
2018-06-05T03:29:10.575Z,101119.47
2018-06-05T03:31:38.890Z,101118.77
2018-06-05T03:34:07.252Z,101122.76
2018-06-05T03:36:35.819Z,101126.16
2018-06-05T03:39:05.761Z,101122.27
2018-06-05T03:41:34.147Z,101127.70
2018-06-05T03:44:02.607Z,101122.88
2018-06-05T03:46:30.939Z,101118.52
2018-06-05T03:48:59.290Z,101121.33
2018-06-05T03:51:27.644Z,101122.57
2018-06-05T03:53:55.834Z,101118.38
2018-06-05T03:56:24.242Z,101122.16
2018-06-05T03:58:52.570Z,101127.15
2018-06-05T04:01:20.921Z,101126.62
2018-06-05T04:03:49.378Z,101122.90
2018-06-05T04:06:20.721Z,101132.02
2018-06-05T04:08:52.441Z,101127.78
2018-06-05T04:11:22.279Z,101127.47
2018-06-05T04:13:54.432Z,101127.28
2018-06-05T04:16:23.561Z,101122.41
2018-06-05T04:18:52.012Z,101123.62
2018-06-05T04:21:20.345Z,101123.10
2018-06-05T04:23:48.687Z,101119.71
2018-06-05T04:26:17.350Z,101122.35
2018-06-05T04:28:45.541Z,101126.66
2018-06-05T04:31:13.898Z,101131.58
2018-06-05T04:33:42.251Z,101126.09
2018-06-05T04:36:10.476Z,101125.55
2018-06-05T04:38:38.835Z,101128.88
2018-06-05T04:41:07.177Z,101124.72
2018-06-05T04:43:35.530Z,101130.28
2018-06-05T04:46:03.902Z,101131.58
2018-06-05T04:48:32.157Z,101130.09
2018-06-05T04:51:00.535Z,101130.02
2018-06-05T04:53:28.904Z,101130.20
2018-06-05T04:55:57.253Z,101133.40
2018-06-05T04:58:25.713Z,101136.44
2018-06-05T05:00:54.093Z,101134.63
2018-06-05T05:03:22.462Z,101138.70
2018-06-05T05:05:50.798Z,101136.72
2018-06-05T05:08:19.327Z,101141.31
2018-06-05T05:10:47.881Z,101145.42
2018-06-05T05:13:16.186Z,101141.07
2018-06-05T05:15:44.416Z,101139.94
2018-06-05T05:18:12.912Z,101144.20
2018-06-05T05:20:41.229Z,101148.50
2018-06-05T05:23:09.670Z,101151.02
2018-06-05T05:25:38.023Z,101148.02
2018-06-05T05:28:06.222Z,101157.44
2018-06-05T05:30:34.518Z,101155.95
2018-06-05T05:33:02.890Z,101154.12
2018-06-05T05:35:31.162Z,101155.08
2018-06-05T05:37:59.498Z,101156.33
2018-06-05T05:40:27.857Z,101163.41
2018-06-05T05:42:56.089Z,101163.53
2018-06-05T05:45:24.498Z,101159.99
2018-06-05T05:47:52.844Z,101156.67
2018-06-05T05:50:21.226Z,101153.97
2018-06-05T05:52:49.654Z,101156.17
2018-06-05T05:55:17.981Z,101161.23
2018-06-05T05:57:46.385Z,101155.27
2018-06-05T06:00:14.765Z,101155.92
2018-06-05T06:02:43.325Z,101161.39
2018-06-05T06:05:11.642Z,101156.59
2018-06-05T06:07:40.113Z,101155.59
2018-06-05T06:10:08.555Z,101164.23
2018-06-05T06:12:36.957Z,101157.47
2018-06-05T06:15:05.554Z,101161.50
2018-06-05T06:17:33.927Z,101166.80
2018-06-05T06:20:02.412Z,101171.41
2018-06-05T06:22:30.715Z,101168.83
2018-06-05T06:24:59.153Z,101171.66
2018-06-05T06:27:27.620Z,101174.19
2018-06-05T06:29:55.977Z,101172.45
2018-06-05T06:32:24.186Z,101176.37
2018-06-05T06:34:52.531Z,101184.52
2018-06-05T06:37:20.912Z,101184.11
2018-06-05T06:39:49.463Z,101185.63
2018-06-05T06:42:17.924Z,101189.66
2018-06-05T06:44:46.289Z,101187.08
2018-06-05T06:47:14.748Z,101186.52
2018-06-05T06:49:43.181Z,101180.67
2018-06-05T06:52:11.564Z,101181.59
2018-06-05T06:54:39.986Z,101185.56
2018-06-05T06:57:08.433Z,101180.52
2018-06-05T06:59:36.888Z,101178.53
2018-06-05T07:02:05.292Z,101185.14
2018-06-05T07:04:33.937Z,101194.57
2018-06-05T07:07:02.291Z,101185.09
2018-06-05T07:09:30.642Z,101193.88
2018-06-05T07:11:58.953Z,101196.53
2018-06-05T07:14:27.452Z,101188.81
2018-06-05T07:16:55.926Z,101188.84
2018-06-05T07:19:24.254Z,101193.77
2018-06-05T07:21:52.766Z,101190.52
2018-06-05T07:24:21.160Z,101189.47
2018-06-05T07:26:49.390Z,101189.13
2018-06-05T07:29:17.677Z,101194.42
2018-06-05T07:31:45.971Z,101199.89
2018-06-05T07:34:14.271Z,101198.54
2018-06-05T07:42:43.581Z,101202.17
2018-06-05T07:45:12.497Z,101206.34
2018-06-05T07:47:41.223Z,101203.48
2018-06-05T07:50:09.944Z,101212.16
2018-06-05T07:52:38.301Z,101213.52
2018-06-05T07:55:07.195Z,101210.47
2018-06-05T07:57:35.687Z,101214.53
2018-06-05T08:00:04.445Z,101212.94
2018-06-05T08:02:32.879Z,101212.05
2018-06-05T08:05:01.264Z,101215.46
2018-06-05T08:07:29.665Z,101215.66
2018-06-05T08:09:58.250Z,101222.12
2018-06-05T08:12:27.394Z,101221.16
2018-06-05T08:14:55.869Z,101215.04
2018-06-05T08:17:24.277Z,101217.58
2018-06-05T08:19:52.643Z,101213.70
2018-06-05T08:22:21.093Z,101215.20
2018-06-05T08:24:49.557Z,101220.11
2018-06-05T08:27:17.923Z,101220.70
2018-06-05T08:29:46.343Z,101219.27
2018-06-05T08:32:16.908Z,101212.89
2018-06-05T08:34:45.451Z,101219.57
2018-06-05T08:37:13.849Z,101221.08
2018-06-05T08:39:42.190Z,101216.41
2018-06-05T08:42:10.560Z,101221.47
2018-06-05T08:44:38.999Z,101222.58
2018-06-05T08:47:07.743Z,101224.48
2018-06-05T08:49:36.171Z,101232.12
2018-06-05T08:52:04.502Z,101232.19
2018-06-05T08:54:32.866Z,101229.89
2018-06-05T08:57:01.196Z,101231.23
2018-06-05T08:59:29.568Z,101235.91
2018-06-05T09:01:57.915Z,101236.95
2018-06-05T09:04:26.307Z,101235.78
2018-06-05T09:06:54.577Z,101242.58
2018-06-05T09:09:23.233Z,101245.59
2018-06-05T09:11:51.647Z,101243.44
2018-06-05T09:14:20.150Z,101251.39
2018-06-05T09:16:48.545Z,101252.06
2018-06-05T09:19:16.949Z,101257.34
2018-06-05T09:21:45.326Z,101250.74
2018-06-05T09:24:13.761Z,101250.91
2018-06-05T09:26:42.107Z,101246.72
2018-06-05T09:29:10.329Z,101245.72
2018-06-05T09:31:38.858Z,101249.03
2018-06-05T09:34:07.232Z,101245.88
2018-06-05T09:36:35.569Z,101245.12
2018-06-05T09:39:06.729Z,101246.88
2018-06-05T09:41:35.258Z,101253.01
2018-06-05T09:44:04.092Z,101257.86
2018-06-05T09:46:32.483Z,101257.90
2018-06-05T09:49:00.829Z,101270.58
2018-06-05T09:51:29.212Z,101258.30
2018-06-05T09:53:57.448Z,101260.30
2018-06-05T09:56:25.843Z,101259.50
2018-06-05T09:58:54.113Z,101253.92
2018-06-05T10:01:22.655Z,101255.56
2018-06-05T10:03:51.163Z,101258.99
2018-06-05T10:06:23.339Z,101266.53
2018-06-05T10:08:52.723Z,101261.22
2018-06-05T10:11:24.169Z,101259.23
2018-06-05T10:13:53.771Z,101261.69
2018-06-05T10:16:24.955Z,101265.96
2018-06-05T10:18:53.364Z,101255.51
2018-06-05T10:21:21.721Z,101252.93
2018-06-05T10:23:50.092Z,101252.88
2018-06-05T10:26:18.457Z,101256.61
2018-06-05T10:28:46.938Z,101253.12
2018-06-05T10:31:15.249Z,101254.56
2018-06-05T10:33:43.870Z,101248.45
2018-06-05T10:36:12.271Z,101247.28
2018-06-05T10:38:40.647Z,101254.75
2018-06-05T10:41:09.216Z,101249.86
2018-06-05T10:43:37.804Z,101253.50
2018-06-05T10:46:06.279Z,101251.47
2018-06-05T10:48:34.464Z,101248.83
2018-06-05T10:51:02.835Z,101253.04
2018-06-05T10:53:31.251Z,101246.87
2018-06-05T10:55:59.665Z,101234.93
2018-06-05T10:58:28.157Z,101244.05
2018-06-05T11:00:56.531Z,101240.89
2018-06-05T11:03:24.922Z,101236.31
2018-06-05T11:05:53.369Z,101246.56
2018-06-05T11:08:21.728Z,101248.38
2018-06-05T11:10:51.324Z,101238.30
2018-06-05T11:13:19.839Z,101243.05
2018-06-05T11:15:48.215Z,101234.80
2018-06-05T11:18:16.616Z,101239.94
2018-06-05T11:20:45.080Z,101233.04
2018-06-05T11:23:13.475Z,101232.88
2018-06-05T11:25:41.868Z,101231.87
2018-06-05T11:28:10.284Z,101230.66
2018-06-05T11:30:38.737Z,101228.88
2018-06-05T11:33:07.105Z,101220.70
2018-06-05T11:35:35.600Z,101220.11
2018-06-05T11:38:04.000Z,101217.55
2018-06-05T11:40:32.487Z,101216.19
2018-06-05T11:43:00.854Z,101209.70
2018-06-05T11:45:29.223Z,101213.34
2018-06-05T11:47:57.815Z,101210.69
2018-06-05T11:50:26.249Z,101206.92
2018-06-05T11:52:54.594Z,101205.89
2018-06-05T11:55:23.176Z,101208.52
2018-06-05T11:57:51.564Z,101200.66
2018-06-05T12:00:20.984Z,101198.03
2018-06-05T12:02:49.429Z,101200.20
2018-06-05T12:05:17.748Z,101199.42
2018-06-05T12:07:46.313Z,101196.88
2018-06-05T12:10:15.555Z,101194.33
2018-06-05T12:12:44.059Z,101189.42
2018-06-05T12:15:12.481Z,101200.44
2018-06-05T12:17:40.858Z,101191.68
2018-06-05T12:20:09.202Z,101192.19
2018-06-05T12:22:38.538Z,101188.00
2018-06-05T12:25:07.097Z,101186.89
2018-06-05T12:27:36.425Z,101173.47
2018-06-05T12:30:04.912Z,101175.69
2018-06-05T12:32:33.273Z,101173.22
2018-06-05T12:35:01.655Z,101169.39
2018-06-05T12:37:30.070Z,101166.39
2018-06-05T12:39:58.335Z,101169.67
2018-06-05T12:42:27.082Z,101159.69
2018-06-05T12:44:55.513Z,101162.34
2018-06-05T12:47:24.063Z,101159.26
2018-06-05T12:49:52.628Z,101162.92
2018-06-05T12:52:21.244Z,101157.68
2018-06-05T12:54:49.468Z,101161.61
2018-06-05T12:57:18.908Z,101161.36
2018-06-05T12:59:47.296Z,101158.24
2018-06-05T13:02:15.723Z,101161.70
2018-06-05T13:04:44.006Z,101165.83
2018-06-05T13:07:12.228Z,101166.23
2018-06-05T13:09:41.089Z,101165.73
2018-06-05T13:12:09.346Z,101167.92
2018-06-05T13:14:37.839Z,101164.73
2018-06-05T13:17:06.293Z,101161.11
2018-06-05T13:19:34.779Z,101153.88
2018-06-05T13:22:03.241Z,101154.08
2018-06-05T13:24:31.566Z,101150.62
2018-06-05T13:27:03.499Z,101147.48
2018-06-05T13:29:32.496Z,101148.45
2018-06-05T13:32:01.048Z,101141.83
2018-06-05T13:34:29.438Z,101136.56
2018-06-05T13:36:57.899Z,101145.75
2018-06-05T13:39:26.241Z,101140.69
2018-06-05T13:41:54.773Z,101145.56
2018-06-05T13:44:23.067Z,101133.04
2018-06-05T13:46:51.381Z,101138.20
2018-06-05T13:49:19.823Z,101135.39
2018-06-05T13:51:48.308Z,101140.82
2018-06-05T13:54:16.703Z,101137.28
2018-06-05T13:56:45.043Z,101129.42
2018-06-05T13:59:13.525Z,101127.67
2018-06-05T14:01:41.938Z,101119.02
2018-06-05T14:04:10.338Z,101120.00
2018-06-05T14:06:38.719Z,101116.13
2018-06-05T14:09:08.707Z,101120.92
2018-06-05T14:11:37.155Z,101115.42
2018-06-05T14:14:05.807Z,101114.02
2018-06-05T14:16:34.162Z,101104.27
2018-06-05T14:19:02.577Z,101115.05
2018-06-05T14:21:30.906Z,101112.66
2018-06-05T14:23:59.334Z,101101.98
2018-06-05T14:26:27.962Z,101105.63
2018-06-05T14:28:56.412Z,101107.19
2018-06-05T14:31:24.763Z,101099.09
2018-06-05T14:33:53.154Z,101098.55
2018-06-05T14:36:23.237Z,101089.06
2018-06-05T14:38:51.610Z,101096.76
2018-06-05T14:41:20.124Z,101081.95
2018-06-05T14:43:48.353Z,101087.25
2018-06-05T14:46:16.814Z,101085.95
2018-06-05T14:48:45.098Z,101080.52
2018-06-05T14:51:13.674Z,101080.20
2018-06-05T14:53:42.269Z,101073.64
2018-06-05T14:56:10.728Z,101071.98
2018-06-05T14:58:39.079Z,101070.87
2018-06-05T15:01:07.526Z,101068.85
2018-06-05T15:03:35.880Z,101070.64
2018-06-05T15:06:04.235Z,101072.00
2018-06-05T15:08:32.541Z,101067.75
2018-06-05T15:11:03.006Z,101064.49
2018-06-05T15:13:31.372Z,101063.26
2018-06-05T15:15:59.909Z,101060.22
2018-06-05T15:18:28.327Z,101055.13
2018-06-05T15:20:56.560Z,101054.86
2018-06-05T15:23:24.950Z,101059.52
2018-06-05T15:25:53.561Z,101058.36
2018-06-05T15:28:21.925Z,101051.72
2018-06-05T15:30:50.738Z,101054.02
2018-06-05T15:33:19.390Z,101053.44
2018-06-05T15:35:48.829Z,101054.72
2018-06-05T15:38:17.450Z,101051.64
2018-06-05T15:40:45.870Z,101050.22
2018-06-05T15:43:14.362Z,101040.58
2018-06-05T15:45:42.713Z,101042.49
2018-06-05T15:48:11.299Z,101044.98
2018-06-05T15:50:39.697Z,101046.66
2018-06-05T15:53:08.103Z,101045.50
2018-06-05T15:55:36.566Z,101041.75
2018-06-05T15:58:05.023Z,101033.97
2018-06-05T16:00:33.465Z,101032.05
2018-06-05T16:03:01.978Z,101039.27
2018-06-05T16:05:30.412Z,101031.97
2018-06-05T16:07:58.741Z,101032.77
2018-06-05T16:10:27.123Z,101034.13
2018-06-05T16:12:55.546Z,101026.10
2018-06-05T16:15:24.636Z,101025.38
2018-06-05T16:17:53.071Z,101031.52
2018-06-05T16:20:21.538Z,101024.98
2018-06-05T16:22:49.937Z,101026.50
2018-06-05T16:25:18.469Z,101020.88
2018-06-05T16:27:46.919Z,101017.75
2018-06-05T16:30:15.315Z,101019.83
2018-06-05T16:32:43.664Z,101016.72
2018-06-05T16:35:12.035Z,101015.97
2018-06-05T16:37:40.331Z,101017.59
2018-06-05T16:40:08.713Z,101011.97
2018-06-05T16:42:37.213Z,101010.41
2018-06-05T16:45:05.693Z,101007.25
2018-06-05T16:47:34.339Z,101010.54
2018-06-05T16:50:02.838Z,101010.47
2018-06-05T16:52:31.228Z,101007.55
2018-06-05T16:54:59.546Z,101008.70
2018-06-05T16:57:27.825Z,101005.42
2018-06-05T16:59:56.245Z,101001.83
2018-06-05T17:02:24.834Z,101002.06
2018-06-05T17:04:53.367Z,101006.19
2018-06-05T17:07:22.002Z,101006.46
2018-06-05T17:09:50.593Z,101002.44
2018-06-05T17:12:19.567Z,100999.87
2018-06-05T17:14:48.572Z,100998.98
2018-06-05T17:17:17.723Z,100997.94
2018-06-05T17:19:46.750Z,100996.65
2018-06-05T17:22:15.665Z,100996.85
2018-06-05T17:24:44.686Z,100996.45
2018-06-05T17:27:13.649Z,100990.33
2018-06-05T17:29:42.347Z,100998.92
2018-06-05T17:32:11.051Z,100996.63
2018-06-05T17:34:39.374Z,101001.77
2018-06-05T17:37:07.785Z,101002.01
2018-06-05T17:39:36.282Z,101003.17
2018-06-05T17:42:05.538Z,101002.44
2018-06-05T17:44:33.860Z,100997.33
2018-06-05T17:47:02.360Z,101004.72
2018-06-05T17:49:30.742Z,101001.23
2018-06-05T17:51:59.378Z,101003.53
2018-06-05T17:54:27.768Z,101009.65
2018-06-05T17:56:56.183Z,101008.03
2018-06-05T17:59:24.961Z,101013.31
2018-06-05T18:01:53.529Z,101008.31
2018-06-05T18:04:22.398Z,101011.81
2018-06-05T18:06:51.419Z,101015.79
2018-06-05T18:09:20.127Z,101023.31
2018-06-05T18:11:49.521Z,101014.58
2018-06-05T18:14:18.534Z,101018.30
2018-06-05T18:16:47.554Z,101020.61
2018-06-05T18:19:17.051Z,101028.73
2018-06-05T18:21:46.545Z,101024.96
2018-06-05T18:24:16.075Z,101023.37
2018-06-05T18:26:44.597Z,101021.41
2018-06-05T18:29:13.026Z,101029.20
2018-06-05T18:31:41.715Z,101028.43
2018-06-05T18:34:10.168Z,101028.58
2018-06-05T18:36:38.556Z,101033.79
2018-06-05T18:39:08.388Z,101036.05
2018-06-05T18:41:36.833Z,101039.66
2018-06-05T18:44:05.231Z,101038.52
2018-06-05T18:46:33.597Z,101039.00
2018-06-05T18:49:01.974Z,101034.49
2018-06-05T18:51:30.332Z,101043.97
2018-06-05T18:53:58.822Z,101041.39
2018-06-05T18:56:27.283Z,101044.09
2018-06-05T18:58:55.698Z,101047.02
2018-06-05T19:01:24.202Z,101051.63
2018-06-05T19:03:52.594Z,101051.32
2018-06-05T19:06:21.044Z,101045.11
2018-06-05T19:08:49.266Z,101053.91
2018-06-05T19:11:17.845Z,101057.29
2018-06-05T19:13:46.182Z,101051.53
2018-06-05T19:16:14.702Z,101058.88
2018-06-05T19:18:43.133Z,101047.84
2018-06-05T19:21:12.661Z,101051.13
2018-06-05T19:23:41.347Z,101059.23
2018-06-05T19:26:09.755Z,101066.11
2018-06-05T19:28:38.208Z,101068.48
2018-06-05T19:31:06.762Z,101072.42
2018-06-05T19:33:35.230Z,101072.78
2018-06-05T19:36:03.765Z,101078.17
2018-06-05T19:38:32.175Z,101076.72
2018-06-05T19:41:00.666Z,101081.70
2018-06-05T19:43:29.119Z,101085.19
2018-06-05T19:45:57.666Z,101092.52
2018-06-05T19:48:26.147Z,101093.63
2018-06-05T19:50:54.659Z,101092.19
2018-06-05T19:53:23.139Z,101090.28
2018-06-05T19:55:51.571Z,101095.21
2018-06-05T19:58:20.090Z,101095.91
2018-06-05T20:00:48.741Z,101099.38
2018-06-05T20:03:17.215Z,101099.49
2018-06-05T20:05:45.698Z,101097.48
2018-06-05T20:08:14.303Z,101103.44
2018-06-05T20:10:42.753Z,101102.78
2018-06-05T20:13:11.229Z,101107.95
2018-06-05T20:15:41.578Z,101099.27
2018-06-05T20:18:10.083Z,101103.20
2018-06-05T20:20:38.750Z,101100.63
2018-06-05T20:23:07.871Z,101105.18
2018-06-05T20:25:36.550Z,101100.57
2018-06-05T20:28:05.034Z,101103.03
2018-06-05T20:30:33.398Z,101108.87
2018-06-05T20:33:01.810Z,101112.03
2018-06-05T20:35:30.198Z,101113.41
2018-06-05T20:37:58.775Z,101115.28
2018-06-05T20:40:27.451Z,101114.73
2018-06-05T20:42:55.858Z,101112.49
2018-06-05T20:45:24.159Z,101110.90
2018-06-05T20:47:52.634Z,101110.44
2018-06-05T20:50:21.072Z,101107.27
2018-06-05T20:52:49.504Z,101114.91
2018-06-05T20:55:17.994Z,101121.00
2018-06-05T20:57:46.366Z,101123.48
2018-06-05T21:00:14.805Z,101119.42
2018-06-05T21:02:43.231Z,101117.48
2018-06-05T21:05:11.760Z,101119.98
2018-06-05T21:07:40.206Z,101118.37
2018-06-05T21:10:08.790Z,101123.77
2018-06-05T21:12:37.178Z,101126.34
2018-06-05T21:15:05.606Z,101128.29
2018-06-05T21:17:34.122Z,101124.87
2018-06-05T21:20:02.702Z,101125.88
2018-06-05T21:22:31.269Z,101126.08
2018-06-05T21:25:00.881Z,101120.47
2018-06-05T21:27:29.416Z,101123.92
2018-06-05T21:29:57.823Z,101129.88
2018-06-05T21:32:26.211Z,101125.14
2018-06-05T21:34:54.557Z,101127.09
2018-06-05T21:37:22.935Z,101132.31
2018-06-05T21:39:51.265Z,101126.15
2018-06-05T21:42:19.835Z,101131.42
2018-06-05T21:44:48.227Z,101133.09
2018-06-05T21:47:16.659Z,101134.55
2018-06-05T21:49:45.039Z,101130.30
2018-06-05T21:52:13.425Z,101130.81
2018-06-05T21:54:41.879Z,101137.37
2018-06-05T21:57:10.253Z,101136.14
2018-06-05T21:59:38.674Z,101128.28
2018-06-05T22:02:07.299Z,101127.88
2018-06-05T22:04:35.652Z,101127.00
2018-06-05T22:07:04.086Z,101133.48
2018-06-05T22:09:32.403Z,101133.56
2018-06-05T22:12:00.804Z,101131.66
2018-06-05T22:14:29.205Z,101125.19
2018-06-05T22:16:57.623Z,101128.00
2018-06-05T22:19:26.034Z,101129.55
2018-06-05T22:21:54.375Z,101124.75
2018-06-05T22:24:22.685Z,101131.55
2018-06-05T22:26:51.048Z,101125.41
2018-06-05T22:29:19.668Z,101129.45
2018-06-05T22:31:48.048Z,101128.02
2018-06-05T22:34:16.430Z,101123.52
2018-06-05T22:36:44.810Z,101126.95
2018-06-05T22:39:13.240Z,101126.95
2018-06-05T22:41:41.574Z,101129.23
2018-06-05T22:44:09.930Z,101127.66
2018-06-05T22:46:38.304Z,101124.17
2018-06-05T22:49:06.737Z,101119.22
2018-06-05T22:51:34.952Z,101126.30
2018-06-05T22:54:03.342Z,101122.08
2018-06-05T22:56:31.905Z,101118.58
2018-06-05T22:59:00.310Z,101126.12
2018-06-05T23:01:28.686Z,101118.35
2018-06-05T23:03:56.889Z,101117.19
2018-06-05T23:06:25.303Z,101112.10
2018-06-05T23:08:53.738Z,101112.83
2018-06-05T23:11:22.074Z,101115.27
2018-06-05T23:13:50.464Z,101112.87
2018-06-05T23:16:18.834Z,101116.66
2018-06-05T23:18:47.172Z,101113.89
2018-06-05T23:21:15.723Z,101119.36
2018-06-05T23:23:43.913Z,101123.08
2018-06-05T23:26:12.401Z,101121.50
2018-06-05T23:28:40.782Z,101117.89
2018-06-05T23:31:09.149Z,101121.61
2018-06-05T23:33:37.388Z,101118.00
2018-06-05T23:36:05.825Z,101116.01
2018-06-05T23:38:34.151Z,101114.22
2018-06-05T23:41:02.523Z,101114.80
2018-06-05T23:43:30.914Z,101123.31
2018-06-05T23:45:59.329Z,101120.97
2018-06-05T23:48:27.700Z,101120.94
2018-06-05T23:50:56.046Z,101113.85
2018-06-05T23:53:24.417Z,101111.51
2018-06-05T23:55:52.822Z,101118.25
2018-06-05T23:58:21.230Z,101123.48
